Nederlandse vliegveldverwachtingen (TAF)

Luchtvaartmeteorologische informatie voor operationeel gebruik en vluchtvoorbereiding is beschikbaar op www.luchtvaartmeteo.nl.

ZCZC
FC260400 EHKD     DE KOOY/DE KOOY   NLD   1 m.
TAF EHKD 260400Z 2605/2617 14007KT CAVOK
    BECMG 2607/2610 14010G20KT
    TEMPO 2612/2617 24012G22KT 4000 SHRA SCT025CB BKN030
    PROB30 TEMPO 2613/2617 25017G32KT 2000 TSRA FEW007 SCT017CB
    BKN022
    BECMG 2615/2617 21008KT=

ZCZC
FC260400 EHLW     LEEUWARDEN/LEEUWARDEN   NLD   1 m.
TAF EHLW 260421Z 2605/2617 13006KT 6000 NSC
    BECMG 2608/2611 14010G20KT
    TEMPO 2614/2617 24014G27KT 4000 SHRA SCT030CB BKN035
    PROB30 TEMPO 2614/2617 25020G37KT 1500 +TSRA SCT005
    SCT025CB BKN030=

ZCZC
FC260400 EHVK     VOLKEL/VOLKEL   NLD   21 m.
TAF EHVK 260430Z 2605/2617 12005KT 7000 NSC
    TEMPO 2612/2617 24012G24KT 4000 SHRA SCT030CB BKN035
    PROB30 TEMPO 2613/2617 25017G32KT 2000 TSRA FEW007 SCT025CB
    BKN030=

ZCZC
FC260400 EHGR     GILZE-RIJEN/GILZE-RIJEN   NLD   14 m.
TAF EHGR 260400Z NIL=

ZCZC
FC260400 EHWO     WOENSDRECHT/WOENSDRECHT   NLD   19 m.
TAF EHWO 260400Z NIL=

ZCZC
FT260500 EHLE     LELYSTAD/LELYSTAD   NLD   -3 m.
TAF EHLE 260442Z 2606/2712 13004KT CAVOK
    BECMG 2611/2614 17010KT
    TEMPO 2613/2619 6000 SHRA SCT040CB
    PROB30 TEMPO 2613/2619 21020G32KT 4000 SHRA TSRA SCT030CB
    BECMG 2616/2619 23007KT=

ZCZC
FT260500 EHEH     EINDHOVEN/EINDHOVEN   NLD   22 m.
TAF EHEH 260523Z 2606/2712 13005KT CAVOK
    BECMG 2609/2612 18008KT
    TEMPO 2612/2619 24012G24KT 4000 SHRA SCT030CB BKN035
    PROB30 TEMPO 2613/2618 25017G32KT 2000 TSRA FEW007 SCT025CB
    BKN030
    BECMG 2618/2620 22006KT
    PROB40 TEMPO 2621/2701 1800 BR MIFG=

ZCZC
FT260500 EHAM     AMSTERDAM/SCHIPHOL   NLD   -3 m.
TAF EHAM 260443Z 2606/2712 13010KT CAVOK
    BECMG 2610/2613 17010KT
    TEMPO 2611/2618 6000 SHRA SCT040CB
    PROB30 TEMPO 2612/2618 21017G27KT 4000 SHRA TSRA SCT030CB
    BECMG 2615/2618 23008KT=

ZCZC
FT260500 EHRD     ROTTERDAM/THE HAGUE AIRPORT   NLD   -5 m.
TAF EHRD 260443Z 2606/2712 13006KT CAVOK
    BECMG 2609/2612 17010KT
    TEMPO 2610/2617 6000 SHRA SCT040CB
    PROB30 TEMPO 2611/2617 21017G27KT 4000 SHRA TSRA SCT030CB
    BECMG 2614/2617 23008KT=

ZCZC
FT260500 EHGG     GRONINGEN/EELDE   NLD   5 m.
TAF EHGG 260514Z 2606/2712 13005KT CAVOK
    TEMPO 2615/2620 4000 SHRA FEW040CB BKN045
    PROB30 TEMPO 2615/2620 20015G28KT 2000 TSRA SCT018 SCT030CB
    BKN040
    BECMG 2706/2709 21010KT=

ZCZC
FT260500 EHBK     MAASTRICHT/MAASTRICHT-AACHEN   NLD   114 m.
TAF EHBK 260521Z 2606/2712 15005KT CAVOK
    BECMG 2609/2612 22010KT
    TEMPO 2611/2621 4000 SHRA FEW040CB
    PROB30 TEMPO 2614/2619 22015G25KT 2000 TSRA SCT030CB
    BKN040
    PROB30 TEMPO 2702/2706 5000 SHRA FEW040CB
    BECMG 2710/2712 25005KT=

26/05/2024 07.30 uur LT